Normanna, Texas
Current Conditions -  °F | °C
As of 9:35 PM on Saturday 25 Oct 2014 (Local Time) from KBEA Reporting Station
Clear Clear  
Wind Chill: 21°   Ceiling: Unl
Heat Index: 21°   Visibility: 10mi
Dew Point: 17°   Wind: 5mph
Humidity: 79%   Direction: 150°SSE
Pressure: 30.11"   Gusts: NA
Location:  28.53°N, 97.78°W
Report Text: KBEA 260235Z AUTO 15004KT 10SM CLR 21/17 A3011 RMK AO2 T02080171
Loading
Personal Weather Stations






























Interactive Weather Map
Tropical Storm Tracking
New forecast layout! Learn more

10-Day Weather Forecast

Advertisements
Track Severe Weather on mobile